Port Edward, Canada
Current Conditions -  °F | °C
As of 9:00 PM on Sunday 19 Oct 2014 (Local Time) from CYPR Reporting Station
Light Rain Light Rain  
Wind Chill: 52°   Ceiling: 6000
Heat Index: 52°   Visibility: 9mi
Dew Point: 48°   Wind: 8mph
Humidity: 88%   Direction: 140°SE
Pressure: 29.33"   Gusts: NA
Location:  54.22°N, 130.29°W
Report Text: CYPR 200400Z AUTO 14007KT 9SM -RA FEW041 BKN060 BKN079 BKN240 11/09 A2933 RMK PCPN 0.5MM PAST HR SLP932 DENSITY ALT 300FT
Loading
Personal Weather Stations






























Interactive Weather Map
Tropical Storm Tracking
New forecast layout! Learn more

10-Day Weather Forecast

Advertisements
Track Severe Weather on mobile